createdAt,value
2019-03-09T00:00:59.764Z,8.30
2019-03-09T00:03:28.968Z,8.29
2019-03-09T00:05:58.139Z,8.38
2019-03-09T00:08:27.308Z,8.35
2019-03-09T00:10:56.511Z,8.33
2019-03-09T00:13:25.684Z,8.39
2019-03-09T00:15:54.876Z,8.28
2019-03-09T00:18:24.034Z,8.21
2019-03-09T00:20:53.228Z,8.15
2019-03-09T00:23:27.206Z,8.17
2019-03-09T00:26:06.823Z,8.21
2019-03-09T00:28:37.662Z,8.22
2019-03-09T00:31:10.953Z,8.17
2019-03-09T00:33:40.131Z,8.15
2019-03-09T00:36:09.307Z,8.15
2019-03-09T00:38:38.493Z,8.26
2019-03-09T00:41:07.688Z,8.22
2019-03-09T00:43:36.857Z,8.24
2019-03-09T00:46:06.048Z,8.40
2019-03-09T00:48:35.235Z,8.28
2019-03-09T00:51:04.407Z,8.20
2019-03-09T00:53:33.607Z,8.17
2019-03-09T00:56:02.771Z,8.23
2019-03-09T00:58:31.957Z,8.21
2019-03-09T01:01:01.147Z,8.29
2019-03-09T01:03:30.325Z,8.24
2019-03-09T01:05:59.517Z,8.25
2019-03-09T01:08:28.691Z,8.34
2019-03-09T01:10:57.878Z,8.37
2019-03-09T01:13:27.058Z,8.28
2019-03-09T01:15:56.274Z,8.34
2019-03-09T01:18:25.486Z,8.40
2019-03-09T01:20:54.716Z,8.38
2019-03-09T01:23:23.864Z,8.41
2019-03-09T01:25:53.063Z,8.41
2019-03-09T01:28:22.244Z,8.47
2019-03-09T01:30:51.458Z,8.47
2019-03-09T01:33:20.700Z,8.56
2019-03-09T01:35:50.071Z,8.65
2019-03-09T01:38:19.264Z,8.66
2019-03-09T01:40:48.437Z,8.72
2019-03-09T01:43:17.733Z,8.77
2019-03-09T01:45:46.940Z,8.79
2019-03-09T01:48:16.123Z,8.83
2019-03-09T01:50:45.294Z,8.92
2019-03-09T01:53:14.473Z,8.96
2019-03-09T01:55:43.675Z,9.05
2019-03-09T01:58:12.867Z,9.03
2019-03-09T02:00:42.233Z,9.14
2019-03-09T02:03:11.411Z,9.14
2019-03-09T02:05:40.594Z,9.12
2019-03-09T02:08:09.787Z,9.11
2019-03-09T02:10:38.983Z,9.14
2019-03-09T02:13:08.182Z,9.21
2019-03-09T02:15:37.390Z,9.30
2019-03-09T02:18:06.592Z,9.30
2019-03-09T02:20:35.842Z,9.31
2019-03-09T02:23:05.058Z,9.31
2019-03-09T02:25:34.253Z,9.39
2019-03-09T02:28:03.442Z,9.39
2019-03-09T02:30:32.639Z,9.48
2019-03-09T02:33:02.501Z,9.48
2019-03-09T02:35:31.682Z,9.52
2019-03-09T02:38:02.603Z,9.58
2019-03-09T02:40:31.785Z,9.58
2019-03-09T02:43:00.959Z,9.65
2019-03-09T02:45:31.840Z,9.65
2019-03-09T02:48:00.999Z,9.58
2019-03-09T02:50:30.205Z,9.61
2019-03-09T02:52:59.378Z,9.61
2019-03-09T02:55:28.570Z,9.60
2019-03-09T02:57:57.757Z,9.62
2019-03-09T03:00:28.579Z,9.68
2019-03-09T03:03:02.059Z,9.65
2019-03-09T03:05:31.236Z,9.63
2019-03-09T03:08:00.412Z,9.59
2019-03-09T03:10:29.611Z,9.49
2019-03-09T03:12:58.794Z,9.50
2019-03-09T03:15:31.025Z,9.50
2019-03-09T03:18:00.561Z,9.41
2019-03-09T03:20:29.730Z,9.41
2019-03-09T03:22:58.989Z,9.40
2019-03-09T03:25:28.250Z,9.40
2019-03-09T03:27:57.454Z,9.36
2019-03-09T03:30:26.733Z,9.38
2019-03-09T03:32:57.537Z,9.39
2019-03-09T03:35:26.723Z,9.38
2019-03-09T03:37:55.886Z,9.33
2019-03-09T03:40:25.083Z,9.33
2019-03-09T03:42:54.259Z,9.45
2019-03-09T03:45:29.225Z,9.45
2019-03-09T03:47:58.534Z,9.37
2019-03-09T03:50:27.713Z,9.39
2019-03-09T03:52:56.902Z,9.44
2019-03-09T03:55:26.267Z,9.43
2019-03-09T03:57:55.570Z,9.43
2019-03-09T04:00:24.760Z,9.44
2019-03-09T04:02:54.887Z,9.44
2019-03-09T04:05:24.135Z,9.44
2019-03-09T04:07:53.476Z,9.41
2019-03-09T04:10:22.762Z,9.41
2019-03-09T04:12:52.700Z,9.41
2019-03-09T04:15:21.874Z,9.42
2019-03-09T04:17:51.069Z,9.43
2019-03-09T04:20:20.259Z,9.42
2019-03-09T04:22:49.685Z,9.45
2019-03-09T04:25:18.808Z,9.44
2019-03-09T04:27:48.056Z,9.42
2019-03-09T04:30:17.223Z,9.42
2019-03-09T04:32:46.408Z,9.41
2019-03-09T04:35:15.599Z,9.36
2019-03-09T04:37:44.760Z,9.41
2019-03-09T04:40:14.894Z,9.42
2019-03-09T04:42:44.193Z,9.42
2019-03-09T04:45:14.027Z,9.45
2019-03-09T04:47:43.189Z,9.42
2019-03-09T04:50:15.533Z,9.42
2019-03-09T04:52:44.704Z,9.44
2019-03-09T04:55:13.951Z,9.43
2019-03-09T04:57:43.150Z,9.44
2019-03-09T05:00:15.091Z,9.51
2019-03-09T05:02:44.283Z,9.50
2019-03-09T05:05:13.621Z,9.44
2019-03-09T05:07:48.482Z,9.51
2019-03-09T05:10:29.593Z,9.56
2019-03-09T05:13:05.034Z,9.59
2019-03-09T05:15:34.159Z,9.59
2019-03-09T05:18:03.344Z,9.60
2019-03-09T05:20:32.528Z,9.64
2019-03-09T05:23:01.766Z,9.62
2019-03-09T05:25:30.874Z,9.65
2019-03-09T05:28:00.064Z,9.62
2019-03-09T05:30:42.400Z,9.62
2019-03-09T05:33:11.772Z,9.61
2019-03-09T05:35:40.950Z,9.66
2019-03-09T05:38:10.180Z,9.64
2019-03-09T05:40:39.378Z,9.64
2019-03-09T05:43:08.617Z,9.72
2019-03-09T05:45:37.869Z,9.66
2019-03-09T05:48:07.028Z,9.68
2019-03-09T05:50:36.190Z,9.72
2019-03-09T05:53:11.300Z,9.75
2019-03-09T05:55:40.482Z,9.74
2019-03-09T05:58:09.684Z,9.76
2019-03-09T06:00:40.050Z,9.76
2019-03-09T06:03:09.233Z,9.79
2019-03-09T06:05:40.886Z,9.79
2019-03-09T06:08:10.057Z,9.76
2019-03-09T06:10:39.266Z,9.82
2019-03-09T06:13:08.531Z,9.77
2019-03-09T06:15:37.672Z,9.77
2019-03-09T06:18:06.939Z,9.77
2019-03-09T06:20:36.084Z,9.76
2019-03-09T06:23:05.366Z,9.72
2019-03-09T06:25:34.538Z,9.77
2019-03-09T06:28:03.839Z,9.77
2019-03-09T06:30:33.991Z,9.74
2019-03-09T06:33:26.239Z,9.74
2019-03-09T06:36:01.224Z,9.73
2019-03-09T06:38:42.447Z,9.72
2019-03-09T06:41:14.678Z,9.67
2019-03-09T06:43:43.892Z,9.67
2019-03-09T06:46:30.928Z,9.74
2019-03-09T06:49:00.115Z,9.74
2019-03-09T06:51:29.312Z,9.76
2019-03-09T06:53:58.566Z,9.76
2019-03-09T06:56:27.742Z,9.73
2019-03-09T06:58:56.921Z,9.69
2019-03-09T07:01:26.096Z,9.72
2019-03-09T07:03:55.297Z,9.72
2019-03-09T07:06:24.469Z,9.73
2019-03-09T07:08:53.649Z,9.73
2019-03-09T07:11:22.858Z,9.71
2019-03-09T07:13:53.216Z,9.71
2019-03-09T07:16:22.564Z,9.71
2019-03-09T07:18:51.743Z,9.71
2019-03-09T07:21:20.913Z,9.75
2019-03-09T07:23:50.095Z,9.70
2019-03-09T07:26:19.268Z,9.74
2019-03-09T07:28:48.441Z,9.74
2019-03-09T07:31:17.628Z,9.70
2019-03-09T07:33:46.796Z,9.75
2019-03-09T07:36:15.978Z,9.75
2019-03-09T07:38:45.162Z,9.76
2019-03-09T07:41:14.330Z,9.76
2019-03-09T07:43:43.488Z,9.87
2019-03-09T07:46:12.691Z,9.77
2019-03-09T07:48:41.806Z,9.82
2019-03-09T07:51:10.977Z,9.82
2019-03-09T07:53:40.191Z,9.86
2019-03-09T07:56:09.384Z,9.83
2019-03-09T07:58:38.549Z,9.86
2019-03-09T08:01:07.751Z,9.85
2019-03-09T08:03:36.929Z,9.93
2019-03-09T08:06:06.093Z,9.93
2019-03-09T08:08:53.295Z,10.00
2019-03-09T08:11:22.475Z,10.09
2019-03-09T08:14:09.903Z,10.15
2019-03-09T08:16:39.491Z,10.15
2019-03-09T08:19:08.680Z,9.94
2019-03-09T08:21:37.866Z,9.94
2019-03-09T08:24:07.080Z,9.99
2019-03-09T08:26:36.165Z,9.87
2019-03-09T08:29:05.324Z,9.76
2019-03-09T08:31:34.890Z,9.76
2019-03-09T08:34:03.983Z,9.83
2019-03-09T08:36:51.415Z,9.88
2019-03-09T08:39:20.624Z,9.84
2019-03-09T08:41:49.810Z,9.81
2019-03-09T08:44:19.178Z,9.83
2019-03-09T08:46:48.370Z,9.82
2019-03-09T08:49:17.554Z,9.82
2019-03-09T08:51:47.156Z,9.84
2019-03-09T08:54:16.389Z,9.86
2019-03-09T08:56:45.556Z,9.87
2019-03-09T08:59:14.736Z,9.98
2019-03-09T09:01:43.946Z,9.98
2019-03-09T09:04:13.111Z,9.98
2019-03-09T09:06:42.290Z,10.01
2019-03-09T09:09:11.468Z,10.08
2019-03-09T09:11:40.640Z,9.98
2019-03-09T09:14:09.822Z,9.91
2019-03-09T09:16:39.004Z,9.78
2019-03-09T09:19:08.184Z,9.95
2019-03-09T09:21:37.371Z,9.85
2019-03-09T09:24:06.549Z,9.93
2019-03-09T09:26:35.739Z,9.93
2019-03-09T09:29:04.990Z,10.03
2019-03-09T09:31:34.165Z,10.03
2019-03-09T09:34:03.272Z,10.08
2019-03-09T09:36:32.619Z,10.08
2019-03-09T09:39:01.824Z,10.07
2019-03-09T09:41:31.009Z,10.13
2019-03-09T09:44:00.191Z,10.16
2019-03-09T09:46:29.480Z,10.11
2019-03-09T09:48:58.719Z,10.17
2019-03-09T09:51:27.957Z,10.33
2019-03-09T09:53:57.094Z,10.65
2019-03-09T09:56:26.274Z,10.74
2019-03-09T09:58:55.461Z,10.88
2019-03-09T10:01:24.627Z,10.76
2019-03-09T10:03:53.812Z,10.60
2019-03-09T10:06:23.002Z,10.60
2019-03-09T10:08:52.190Z,10.47
2019-03-09T10:11:21.374Z,10.61
2019-03-09T10:13:50.563Z,10.48
2019-03-09T10:16:19.776Z,10.40
2019-03-09T10:18:49.052Z,10.42
2019-03-09T10:21:36.513Z,10.48
2019-03-09T10:24:23.539Z,10.31
2019-03-09T10:26:52.920Z,10.31
2019-03-09T10:29:22.707Z,10.65
2019-03-09T10:31:51.878Z,10.65
2019-03-09T10:34:21.065Z,10.79
2019-03-09T10:36:50.247Z,10.73
2019-03-09T10:39:19.428Z,10.73
2019-03-09T10:41:48.653Z,10.77
2019-03-09T10:44:17.818Z,10.86
2019-03-09T10:46:47.001Z,11.06
2019-03-09T10:49:16.191Z,10.84
2019-03-09T10:51:45.388Z,10.99
2019-03-09T10:54:14.670Z,10.99
2019-03-09T10:56:44.422Z,11.04
2019-03-09T10:59:13.601Z,11.05
2019-03-09T11:01:42.877Z,10.75
2019-03-09T11:04:12.049Z,10.78
2019-03-09T11:06:41.243Z,10.78
2019-03-09T11:09:11.271Z,10.76
2019-03-09T11:11:40.453Z,10.76
2019-03-09T11:14:09.555Z,10.91
2019-03-09T11:16:38.724Z,10.88
2019-03-09T11:19:07.920Z,10.77
2019-03-09T11:21:37.100Z,10.77
2019-03-09T11:24:06.276Z,10.78
2019-03-09T11:26:35.479Z,10.67
2019-03-09T11:29:04.675Z,10.70
2019-03-09T11:31:33.895Z,10.68
2019-03-09T11:34:03.084Z,10.68
2019-03-09T11:36:32.294Z,10.58
2019-03-09T11:39:01.476Z,10.72
2019-03-09T11:41:30.659Z,10.84
2019-03-09T11:43:59.881Z,10.88
2019-03-09T11:46:29.054Z,10.88
2019-03-09T11:48:58.264Z,10.90
2019-03-09T11:51:27.436Z,10.94
2019-03-09T11:53:56.628Z,10.94
2019-03-09T11:56:25.826Z,10.97
2019-03-09T11:58:55.087Z,11.16
2019-03-09T12:01:24.275Z,11.26
2019-03-09T12:03:53.466Z,11.26
2019-03-09T12:06:22.822Z,11.28
2019-03-09T12:08:52.004Z,11.30
2019-03-09T12:11:21.208Z,11.29
2019-03-09T12:13:50.400Z,11.36
2019-03-09T12:16:19.582Z,11.36
2019-03-09T12:18:48.765Z,11.40
2019-03-09T12:21:17.945Z,11.40
2019-03-09T12:23:47.167Z,11.35
2019-03-09T12:26:16.345Z,11.48
2019-03-09T12:28:45.527Z,11.43
2019-03-09T12:31:14.697Z,11.38
2019-03-09T12:33:43.933Z,11.36
2019-03-09T12:36:13.145Z,11.34
2019-03-09T12:38:42.313Z,11.42
2019-03-09T12:41:11.497Z,11.42
2019-03-09T12:43:40.675Z,11.45
2019-03-09T12:46:09.872Z,11.41
2019-03-09T12:48:40.374Z,11.42
2019-03-09T12:51:09.543Z,11.45
2019-03-09T12:53:38.741Z,11.51
2019-03-09T12:56:07.914Z,11.50
2019-03-09T12:58:55.065Z,11.43
2019-03-09T13:01:24.246Z,11.40
2019-03-09T13:03:53.424Z,11.26
2019-03-09T13:06:22.569Z,11.20
2019-03-09T13:08:51.761Z,11.22
2019-03-09T13:11:20.995Z,11.23
2019-03-09T13:14:08.336Z,11.08
2019-03-09T13:16:37.543Z,11.09
2019-03-09T13:19:06.764Z,11.12
2019-03-09T13:21:35.952Z,11.12
2019-03-09T13:24:05.149Z,11.04
2019-03-09T13:26:34.345Z,11.03
2019-03-09T13:29:03.463Z,11.02
2019-03-09T13:31:32.644Z,11.03
2019-03-09T13:34:01.833Z,10.93
2019-03-09T13:36:48.741Z,11.04
2019-03-09T13:39:17.934Z,10.94
2019-03-09T13:41:47.121Z,10.96
2019-03-09T13:44:16.331Z,10.98
2019-03-09T13:46:45.516Z,11.09
2019-03-09T13:49:14.708Z,11.09
2019-03-09T13:51:43.897Z,11.17
2019-03-09T13:54:13.111Z,11.24
2019-03-09T13:56:42.308Z,11.10
2019-03-09T13:59:11.509Z,11.10
2019-03-09T14:01:40.699Z,11.02
2019-03-09T14:04:09.892Z,11.03
2019-03-09T14:06:39.093Z,11.03
2019-03-09T14:09:09.973Z,11.10
2019-03-09T14:11:39.167Z,11.25
2019-03-09T14:14:08.359Z,11.25
2019-03-09T14:16:37.532Z,11.35
2019-03-09T14:19:06.803Z,11.37
2019-03-09T14:21:35.990Z,11.39
2019-03-09T14:24:05.402Z,11.44
2019-03-09T14:26:34.588Z,11.40
2019-03-09T14:29:05.411Z,11.35
2019-03-09T14:31:34.645Z,11.54
2019-03-09T14:34:03.814Z,11.43
2019-03-09T14:36:33.680Z,11.32
2019-03-09T14:39:04.244Z,10.61
2019-03-09T14:41:33.425Z,9.83
2019-03-09T14:44:02.616Z,9.31
2019-03-09T14:46:31.729Z,9.31
2019-03-09T14:49:00.917Z,9.42
2019-03-09T14:51:30.123Z,9.29
2019-03-09T14:53:59.303Z,9.37
2019-03-09T14:56:28.623Z,9.34
2019-03-09T14:58:57.817Z,9.45
2019-03-09T15:01:27.134Z,9.40
2019-03-09T15:03:56.389Z,9.50
2019-03-09T15:06:43.726Z,9.57
2019-03-09T15:09:30.794Z,9.68
2019-03-09T15:11:59.998Z,9.79
2019-03-09T15:14:29.188Z,9.88
2019-03-09T15:16:58.360Z,9.88
2019-03-09T15:19:27.558Z,9.92
2019-03-09T15:21:56.748Z,9.97
2019-03-09T15:24:25.937Z,9.98
2019-03-09T15:26:55.149Z,10.00
2019-03-09T15:29:24.323Z,10.00
2019-03-09T15:31:53.522Z,10.18
2019-03-09T15:34:22.723Z,10.11
2019-03-09T15:36:51.902Z,10.12
2019-03-09T15:39:21.369Z,10.15
2019-03-09T15:41:50.563Z,10.16
2019-03-09T15:44:19.832Z,10.16
2019-03-09T15:46:49.032Z,10.14
2019-03-09T15:49:36.418Z,10.15
2019-03-09T15:52:05.608Z,10.10
2019-03-09T15:54:34.833Z,10.00
2019-03-09T15:57:04.078Z,10.03
2019-03-09T15:59:33.273Z,10.03
2019-03-09T16:02:05.506Z,10.01
2019-03-09T16:04:34.702Z,10.04
2019-03-09T16:07:06.305Z,10.05
2019-03-09T16:09:35.503Z,10.02
2019-03-09T16:12:04.695Z,10.02
2019-03-09T16:14:33.878Z,10.02
2019-03-09T16:17:05.992Z,10.01
2019-03-09T16:19:35.183Z,9.92
2019-03-09T16:22:04.494Z,9.92
2019-03-09T16:24:33.671Z,9.92
2019-03-09T16:27:02.841Z,9.97
2019-03-09T16:29:32.022Z,10.01
2019-03-09T16:32:01.215Z,10.01
2019-03-09T16:34:30.414Z,9.96
2019-03-09T16:37:01.683Z,9.93
2019-03-09T16:39:30.863Z,9.95
2019-03-09T16:42:00.061Z,10.02
2019-03-09T16:44:29.261Z,9.94
2019-03-09T16:46:58.478Z,9.94
2019-03-09T16:49:29.433Z,9.76
2019-03-09T16:51:58.621Z,9.75
2019-03-09T16:54:27.901Z,9.83
2019-03-09T16:56:57.087Z,9.81
2019-03-09T16:59:26.327Z,9.85
2019-03-09T17:01:55.497Z,9.84
2019-03-09T17:04:24.701Z,9.84
2019-03-09T17:06:53.874Z,9.87
2019-03-09T17:09:23.079Z,9.89
2019-03-09T17:11:52.255Z,9.89
2019-03-09T17:14:21.434Z,9.78
2019-03-09T17:16:50.618Z,9.78
2019-03-09T17:19:19.830Z,9.94
2019-03-09T17:21:49.016Z,9.89
2019-03-09T17:24:18.188Z,9.89
2019-03-09T17:26:47.381Z,9.90
2019-03-09T17:29:16.562Z,9.89
2019-03-09T17:31:45.754Z,9.87
2019-03-09T17:34:14.923Z,9.92
2019-03-09T17:36:44.107Z,9.92
2019-03-09T17:39:13.295Z,9.87
2019-03-09T17:41:42.486Z,9.88
2019-03-09T17:44:11.680Z,9.88
2019-03-09T17:46:40.856Z,9.86
2019-03-09T17:49:10.059Z,9.84
2019-03-09T17:51:39.298Z,9.82
2019-03-09T17:54:08.419Z,9.82
2019-03-09T17:56:37.656Z,9.82
2019-03-09T17:59:06.812Z,9.78
2019-03-09T18:01:36.008Z,9.76
2019-03-09T18:04:05.183Z,9.78
2019-03-09T18:06:34.369Z,9.78
2019-03-09T18:09:04.755Z,9.75
2019-03-09T18:11:33.956Z,9.75
2019-03-09T18:14:06.929Z,9.76
2019-03-09T18:16:33.991Z,9.84
2019-03-09T18:19:03.188Z,9.84
2019-03-09T18:21:32.343Z,9.84
2019-03-09T18:24:01.569Z,9.84
2019-03-09T18:26:30.715Z,9.88
2019-03-09T18:29:00.033Z,9.86
2019-03-09T18:31:29.201Z,9.86
2019-03-09T18:33:58.367Z,9.88
2019-03-09T18:36:27.736Z,9.88
2019-03-09T18:38:56.913Z,9.88
2019-03-09T18:41:26.101Z,9.90
2019-03-09T18:43:55.287Z,9.94
2019-03-09T18:46:24.514Z,9.90
2019-03-09T18:48:53.711Z,9.90
2019-03-09T18:51:22.879Z,9.86
2019-03-09T18:53:52.159Z,9.79
2019-03-09T18:56:21.319Z,9.79
2019-03-09T18:58:50.500Z,9.83
2019-03-09T19:01:19.705Z,9.88
2019-03-09T19:03:48.916Z,9.88
2019-03-09T19:06:18.097Z,9.88
2019-03-09T19:08:47.271Z,9.92
2019-03-09T19:11:16.463Z,9.77
2019-03-09T19:13:45.671Z,9.80
2019-03-09T19:16:14.835Z,9.83
2019-03-09T19:18:44.091Z,9.89
2019-03-09T19:21:13.751Z,9.89
2019-03-09T19:23:42.946Z,9.90
2019-03-09T19:26:12.152Z,9.86
2019-03-09T19:28:41.389Z,9.91
2019-03-09T19:31:10.561Z,9.91
2019-03-09T19:33:39.762Z,9.90
2019-03-09T19:36:08.975Z,9.94
2019-03-09T19:38:38.181Z,9.96
2019-03-09T19:41:07.379Z,9.98
2019-03-09T19:43:36.554Z,9.98
2019-03-09T19:46:05.752Z,9.95
2019-03-09T19:48:34.930Z,9.93
2019-03-09T19:51:04.204Z,9.95
2019-03-09T19:53:33.415Z,9.95
2019-03-09T19:56:02.596Z,9.94
2019-03-09T19:58:31.783Z,9.88
2019-03-09T20:01:00.990Z,9.91
2019-03-09T20:03:30.162Z,9.91
2019-03-09T20:05:59.438Z,9.97
2019-03-09T20:08:28.625Z,10.01
2019-03-09T20:10:57.895Z,9.99
2019-03-09T20:13:27.098Z,10.01
2019-03-09T20:15:56.330Z,10.01
2019-03-09T20:18:25.526Z,10.01
2019-03-09T20:21:12.809Z,9.92
2019-03-09T20:23:42.046Z,9.93
2019-03-09T20:26:11.329Z,9.93
2019-03-09T20:28:40.525Z,9.94
2019-03-09T20:31:09.729Z,9.94
2019-03-09T20:33:38.937Z,10.01
2019-03-09T20:36:08.115Z,9.99
2019-03-09T20:38:37.303Z,9.99
2019-03-09T20:41:06.488Z,10.02
2019-03-09T20:43:35.661Z,9.96
2019-03-09T20:46:04.918Z,9.91
2019-03-09T20:48:34.045Z,9.91
2019-03-09T20:51:03.248Z,9.93
2019-03-09T20:53:32.428Z,9.88
2019-03-09T20:56:01.604Z,9.82
2019-03-09T20:58:30.803Z,9.82
2019-03-09T21:01:00.143Z,9.88
2019-03-09T21:03:29.327Z,9.83
2019-03-09T21:05:58.502Z,9.83
2019-03-09T21:08:27.687Z,9.79
2019-03-09T21:11:03.904Z,9.79
2019-03-09T21:13:27.777Z,9.75
2019-03-09T21:15:56.952Z,9.75
2019-03-09T21:18:26.149Z,9.75
2019-03-09T21:20:55.310Z,9.78
2019-03-09T21:23:24.502Z,9.81
2019-03-09T21:25:53.728Z,9.82
2019-03-09T21:28:22.918Z,9.86
2019-03-09T21:30:52.083Z,9.81
2019-03-09T21:33:21.290Z,9.73
2019-03-09T21:35:50.500Z,9.73
2019-03-09T21:38:19.680Z,9.71
2019-03-09T21:40:48.870Z,9.75
2019-03-09T21:43:18.070Z,9.75
2019-03-09T21:45:47.244Z,9.73
2019-03-09T21:48:16.463Z,9.82
2019-03-09T21:50:45.647Z,9.77
2019-03-09T21:53:15.673Z,9.77
2019-03-09T21:55:44.853Z,9.73
2019-03-09T21:58:14.071Z,9.72
2019-03-09T22:00:43.249Z,9.72
2019-03-09T22:03:12.425Z,9.69
2019-03-09T22:05:41.621Z,9.64
2019-03-09T22:08:10.797Z,9.57
2019-03-09T22:10:40.055Z,9.57
2019-03-09T22:13:09.167Z,9.66
2019-03-09T22:15:38.347Z,9.67
2019-03-09T22:18:07.530Z,9.73
2019-03-09T22:20:36.719Z,9.74
2019-03-09T22:23:05.981Z,9.67
2019-03-09T22:25:35.197Z,9.65
2019-03-09T22:28:04.555Z,9.63
2019-03-09T22:30:33.726Z,9.63
2019-03-09T22:33:04.632Z,9.69
2019-03-09T22:35:33.773Z,9.69
2019-03-09T22:38:03.002Z,9.61
2019-03-09T22:40:32.174Z,9.61
2019-03-09T22:43:01.350Z,9.58
2019-03-09T22:45:30.542Z,9.58
2019-03-09T22:47:59.792Z,9.63
2019-03-09T22:50:28.971Z,9.68
2019-03-09T22:52:58.159Z,9.70
2019-03-09T22:55:27.348Z,9.70
2019-03-09T22:57:56.543Z,9.65
2019-03-09T23:00:27.168Z,9.73
2019-03-09T23:02:56.553Z,9.65
2019-03-09T23:05:25.831Z,9.65
2019-03-09T23:07:55.011Z,9.69
2019-03-09T23:10:28.297Z,9.65
2019-03-09T23:12:57.492Z,9.65
2019-03-09T23:15:26.694Z,9.59
2019-03-09T23:18:03.843Z,9.60
2019-03-09T23:20:33.075Z,9.60
2019-03-09T23:23:02.254Z,9.68
2019-03-09T23:25:31.500Z,9.67
2019-03-09T23:28:00.707Z,9.67
2019-03-09T23:30:29.906Z,9.57
2019-03-09T23:32:59.018Z,9.65
2019-03-09T23:35:28.195Z,9.65
2019-03-09T23:37:57.371Z,9.65
2019-03-09T23:40:26.639Z,9.68
2019-03-09T23:42:55.799Z,9.57
2019-03-09T23:45:26.685Z,9.60
2019-03-09T23:47:56.215Z,9.60
2019-03-09T23:50:25.554Z,9.70
2019-03-09T23:52:54.821Z,9.73
2019-03-09T23:55:24.327Z,9.73
2019-03-09T23:57:53.583Z,9.56
